Massac, Kentucky
Current Conditions -  °F | °C
As of 6:53 AM on Thursday 23 Oct 2014 (Local Time) from KPAH Reporting Station
Haze Haze  
Wind Chill: 36°   Ceiling: Unl
Heat Index: 36°   Visibility: 3mi
Dew Point: 35°   Wind: 0mph
Humidity: 97%   Direction: NA
Pressure: 30.21"   Gusts: NA
Location:  37.0331°N, 88.716°W
Report Text: KPAH 231153Z 00000KT 3SM BR CLR 02/02 A3021 RMK AO2 SLP230 T00220017 10050 20011 58002
Loading
Personal Weather Stations






























Interactive Weather Map
Tropical Storm Tracking
New forecast layout! Learn more

10-Day Weather Forecast

Advertisements
Track Severe Weather on mobile